Arrival - Weather - Departure
Ostend Airport (EBOS - OST)
This page refreshes every 5 minutes.
Contact New Style NL | EN  Best Resolution: 1280x1024

Page last updated at 12:50:30
WEER EBOS TEST PAGE WEER
The report was made at 11:20 UTC (Now: 11:50:30 UTC)
The wind blows with a force of 28 km/h and is from the southwest
The sight is 9999 meter Runway 26 in use
The temperature is 09 °C The dew point is 06 °C
The humidity is 81 %
The air pressure is 1023 HPa
The weather is now few clouds at 396 meter altitude broken clouds at 1372 meter altitude
The next two hours there is no significant change
2017/02/19 11:20 EBOS 191120Z 25015KT 9999 FEW013 BKN045 09/06 Q1023 NOSIG
METAR EBOS TAF EBOS Info METAR
© Bert Sanders

 
Interesting websites about EBOS
EBOS-Spotting
REPLO
Website airport
Other interesting websites
Spottinggroup RS06
Android app on Google Play